Time;durP1;ratioP1;P1;durP2;ratioP2;P2;SDS_P1;SDS_P2;PMS_P1;PMS_P2;Temp;Humidity;BMP_temperature;BMP_pressure;BME280_temperature;BME280_humidity;BME280_pressure;Samples;Min_cycle;Max_cycle;Signal;HPM_P1;HPM_P2
2021/03/25 00:01:00;;;;;;;7.73;5.70;;;;;;;7.34;72.96;100858.03;5050942;28;20182;-71
2021/03/25 00:03:25;;;;;;;9.20;7.23;;;;;;;7.36;72.90;100864.81;5050837;28;20178;-71
2021/03/25 00:05:52;;;;;;;11.33;6.00;;;;;;;7.22;73.31;100871.13;5050647;28;20179;-72
2021/03/25 00:08:22;;;;;;;11.40;6.67;;;;;;;6.92;74.74;100870.16;5050566;28;20694;-71
2021/03/25 00:10:48;;;;;;;12.27;6.00;;;;;;;6.93;75.13;100884.53;5050065;28;20508;-71
2021/03/25 00:13:14;;;;;;;9.00;6.73;;;;;;;6.99;74.87;100878.84;5050786;28;20182;-71
2021/03/25 00:15:40;;;;;;;8.77;6.63;;;;;;;6.97;74.80;100883.72;5050695;28;20179;-71
2021/03/25 00:18:07;;;;;;;7.93;6.17;;;;;;;6.82;75.13;100881.88;5050492;28;20206;-71
2021/03/25 00:20:32;;;;;;;7.50;4.50;;;;;;;6.62;75.96;100883.81;5052981;28;20194;-72
2021/03/25 00:22:58;;;;;;;7.97;7.17;;;;;;;6.49;76.54;100883.28;5051432;28;20175;-71
2021/03/25 00:25:28;;;;;;;12.53;7.33;;;;;;;6.29;77.48;100879.78;5050369;28;20682;-71
2021/03/25 00:27:54;;;;;;;9.37;7.97;;;;;;;6.06;78.00;100886.53;5050105;28;20636;-71
2021/03/25 00:30:24;;;;;;;6.73;5.93;;;;;;;5.88;79.06;100883.25;5050222;28;20272;-71
2021/03/25 00:32:50;;;;;;;14.20;7.03;;;;;;;5.76;79.57;100879.97;5050302;28;20175;-71
2021/03/25 00:35:16;;;;;;;9.20;6.17;;;;;;;5.67;80.12;100882.41;5050118;28;20177;-71
2021/03/25 00:37:41;;;;;;;14.07;7.93;;;;;;;5.65;79.99;100881.03;5049864;28;20293;-71
2021/03/25 00:40:08;;;;;;;19.50;8.00;;;;;;;5.68;79.95;100875.91;5050113;28;20692;-71
2021/03/25 00:42:34;;;;;;;6.23;5.63;;;;;;;5.66;79.87;100878.06;5050119;28;20181;-71
2021/03/25 00:45:01;;;;;;;21.90;7.17;;;;;;;5.71;79.93;100888.09;5050134;28;20171;-71
2021/03/25 00:47:26;;;;;;;7.93;7.20;;;;;;;5.80;79.54;100891.09;5053584;28;20179;-71
2021/03/25 00:49:52;;;;;;;13.77;7.20;;;;;;;5.81;79.55;100895.44;5054112;28;20540;-71
2021/03/25 00:52:18;;;;;;;30.77;8.77;;;;;;;5.89;79.31;100897.59;5053834;28;20817;-71
2021/03/25 00:54:43;;;;;;;13.03;8.33;;;;;;;5.89;79.46;100895.72;5053823;28;20171;-71
2021/03/25 00:57:09;;;;;;;11.90;8.23;;;;;;;5.90;79.18;100893.84;5053487;28;20199;-71
2021/03/25 00:59:34;;;;;;;11.53;7.73;;;;;;;5.87;79.26;100886.22;5053788;28;20636;-72
2021/03/25 01:02:00;;;;;;;16.80;6.33;;;;;;;5.78;79.50;100891.34;5054045;28;20623;-71
2021/03/25 01:04:26;;;;;;;13.50;10.63;;;;;;;5.69;79.74;100884.84;5053822;28;20197;-71
2021/03/25 01:06:52;;;;;;;13.13;6.80;;;;;;;5.59;80.02;100876.69;5053455;28;20179;-71
2021/03/25 01:09:29;;;;;;;14.07;9.60;;;;;;;5.50;80.51;100881.00;5053133;28;20568;-71
2021/03/25 01:11:56;;;;;;;15.53;7.37;;;;;;;5.45;80.67;100886.41;5053688;28;20206;-71
2021/03/25 01:14:23;;;;;;;13.87;10.47;;;;;;;5.48;81.00;100885.84;5053622;28;20183;-71
2021/03/25 01:16:51;;;;;;;12.23;9.50;;;;;;;5.48;81.02;100880.44;5053162;28;20205;-71
2021/03/25 01:19:26;;;;;;;12.57;8.53;;;;;;;5.35;81.40;100882.59;5053476;28;20179;-71
2021/03/25 01:21:53;;;;;;;14.90;9.67;;;;;;;5.31;82.04;100877.94;5053457;28;20175;-71
2021/03/25 01:24:19;;;;;;;16.13;9.87;;;;;;;5.25;82.24;100876.31;5053500;28;20575;-71
2021/03/25 01:26:44;;;;;;;13.83;7.10;;;;;;;5.22;82.28;100876.84;5053299;28;20182;-72
2021/03/25 01:29:10;;;;;;;10.50;6.87;;;;;;;5.05;82.14;100877.84;5053150;28;20198;-71
2021/03/25 01:31:35;;;;;;;31.23;10.07;;;;;;;4.88;82.75;100873.69;5053350;28;20225;-71
2021/03/25 01:34:02;;;;;;;19.80;9.63;;;;;;;4.79;83.42;100878.81;5053199;28;20171;-71
2021/03/25 01:36:27;;;;;;;14.27;9.60;;;;;;;4.76;84.47;100874.72;5052539;28;20217;-71
2021/03/25 01:38:53;;;;;;;21.50;10.87;;;;;;;4.75;84.38;100875.78;5053092;28;20258;-72
2021/03/25 01:41:20;;;;;;;19.17;10.73;;;;;;;4.67;84.42;100873.59;5053243;28;20175;-71
2021/03/25 01:43:46;;;;;;;11.63;9.20;;;;;;;4.63;84.66;100868.94;5053077;28;20175;-71
2021/03/25 01:46:24;;;;;;;18.77;10.30;;;;;;;4.62;85.18;100867.31;5052552;28;20182;-72
2021/03/25 01:48:55;;;;;;;29.73;12.10;;;;;;;4.59;84.79;100871.38;5052810;28;20171;-71
2021/03/25 01:51:23;;;;;;;19.80;11.77;;;;;;;4.57;85.09;100878.13;5052979;28;20175;-71
2021/03/25 01:54:02;;;;;;;18.13;12.27;;;;;;;4.57;86.02;100872.72;5052860;28;20171;-71
2021/03/25 01:57:02;;;;;;;18.03;8.70;;;;;;;4.46;85.74;100863.69;5051917;28;20197;-71
2021/03/25 01:59:45;;;;;;;17.17;12.73;;;;;;;4.43;86.41;100861.53;5036431;28;20401;-71
2021/03/25 02:02:32;;;;;;;33.43;12.67;;;;;;;4.37;86.52;100865.28;5052661;28;20225;-71
2021/03/25 02:05:21;;;;;;;29.47;11.73;;;;;;;4.33;86.69;100858.72;5068077;28;20342;-71
2021/03/25 02:08:06;;;;;;;25.93;14.30;;;;;;;4.35;87.30;100854.72;5072143;28;20265;-71
2021/03/25 02:10:35;;;;;;;26.03;13.33;;;;;;;4.42;87.58;100851.78;5072156;28;20174;-71
2021/03/25 02:13:12;;;;;;;39.47;13.07;;;;;;;4.44;87.59;100853.13;5072553;28;20638;-71
2021/03/25 02:16:02;;;;;;;17.80;11.37;;;;;;;4.36;87.57;100850.13;5072407;28;20231;-71
2021/03/25 02:18:41;;;;;;;31.70;15.93;;;;;;;4.42;87.64;100840.97;5072848;28;20201;-71
2021/03/25 02:21:25;;;;;;;20.40;11.57;;;;;;;4.45;87.82;100851.25;5072355;28;20198;-72
2021/03/25 02:24:00;;;;;;;20.87;13.03;;;;;;;4.44;87.85;100844.22;5072343;28;20178;-72
2021/03/25 02:26:34;;;;;;;22.57;12.47;;;;;;;4.30;87.94;100840.31;5071932;28;20176;-71
2021/03/25 02:29:21;;;;;;;21.30;13.53;;;;;;;4.15;88.10;100841.84;5072042;28;20189;-71
2021/03/25 02:31:51;;;;;;;28.27;12.93;;;;;;;4.18;88.76;100840.50;5072172;28;20180;-71
2021/03/25 02:34:25;;;;;;;28.70;17.07;;;;;;;4.32;89.58;100838.19;5054241;28;20179;-71
2021/03/25 02:37:03;;;;;;;30.10;16.30;;;;;;;4.35;89.32;100833.09;5071647;28;20210;-72
2021/03/25 02:39:39;;;;;;;25.13;15.67;;;;;;;4.32;88.42;100832.75;5071943;28;20189;-71
2021/03/25 02:42:07;;;;;;;30.70;14.70;;;;;;;4.27;88.42;100822.72;5071934;28;20395;-71
2021/03/25 02:44:41;;;;;;;21.30;13.07;;;;;;;4.16;88.36;100816.44;5071908;28;20182;-71
2021/03/25 02:47:08;;;;;;;20.67;13.20;;;;;;;4.11;88.85;100821.00;5071528;28;20196;-72
2021/03/25 02:49:44;;;;;;;24.10;13.27;;;;;;;4.06;89.41;100819.09;5071761;28;20184;-71
2021/03/25 02:52:21;;;;;;;33.30;14.43;;;;;;;4.03;89.57;100814.16;5071579;28;20209;-71
2021/03/25 02:54:47;;;;;;;25.60;15.63;;;;;;;4.10;90.27;100814.78;5071558;28;20268;-71
2021/03/25 02:57:35;;;;;;;30.67;14.27;;;;;;;4.07;90.35;100823.41;5071186;28;20196;-71
2021/03/25 03:00:11;;;;;;;30.97;16.40;;;;;;;4.04;90.09;100804.97;5071554;28;20175;-71
2021/03/25 03:02:40;;;;;;;29.33;15.43;;;;;;;4.07;90.47;100811.78;5071484;28;20548;-71
2021/03/25 03:05:12;;;;;;;23.93;15.43;;;;;;;4.11;90.63;100816.41;5071535;28;20257;-72
2021/03/25 03:07:55;;;;;;;30.83;16.17;;;;;;;4.17;90.41;100814.53;5071150;28;20171;-72
2021/03/25 03:10:25;;;;;;;31.10;14.20;;;;;;;4.21;89.24;100806.75;5070679;28;20170;-72
2021/03/25 03:12:53;;;;;;;30.50;15.23;;;;;;;4.24;89.37;100809.75;5071376;28;20167;-71
2021/03/25 03:15:26;;;;;;;26.07;13.77;;;;;;;4.25;88.79;100810.56;5071637;28;20570;-71
2021/03/25 03:18:09;;;;;;;25.60;13.87;;;;;;;4.33;88.88;100812.75;5070811;28;20217;-72
2021/03/25 03:20:48;;;;;;;22.03;14.20;;;;;;;4.09;88.84;100809.63;5071303;28;20170;-72
2021/03/25 03:23:13;;;;;;;21.20;14.27;;;;;;;4.31;89.02;100812.22;5071650;28;20236;-71
2021/03/25 03:25:39;;;;;;;24.93;14.67;;;;;;;4.28;87.50;100808.13;5071385;28;20776;-72
2021/03/25 03:28:14;;;;;;;18.33;12.87;;;;;;;4.15;87.07;100808.59;5070847;28;20178;-71
2021/03/25 03:30:47;;;;;;;22.83;13.73;;;;;;;4.07;86.98;100811.78;5071188;28;20206;-72
2021/03/25 03:33:22;;;;;;;19.87;13.10;;;;;;;4.08;87.65;100808.00;5071043;28;20197;-72
2021/03/25 03:35:57;;;;;;;17.70;13.83;;;;;;;4.09;87.80;100809.63;5071140;28;20174;-71
2021/03/25 03:38:30;;;;;;;26.53;13.57;;;;;;;4.16;88.67;100821.03;5070769;28;20178;-72
2021/03/25 03:40:57;;;;;;;21.40;12.07;;;;;;;4.12;88.00;100817.22;5052799;28;20738;-71
2021/03/25 03:43:23;;;;;;;27.53;14.63;;;;;;;3.71;89.78;100818.78;5061887;28;20177;-72
2021/03/25 03:46:01;;;;;;;20.53;13.73;;;;;;;3.99;89.19;100821.19;5050765;28;20183;-72
2021/03/25 03:48:53;;;;;;;14.67;12.40;;;;;;;4.08;87.65;100819.63;5050562;28;20174;-71
2021/03/25 03:51:28;;;;;;;24.60;16.43;;;;;;;3.97;87.82;100809.81;5022059;28;20205;-71
2021/03/25 03:53:57;;;;;;;29.67;16.87;;;;;;;3.92;87.98;100819.78;5051153;28;20167;-71
2021/03/25 03:56:45;;;;;;;25.73;13.67;;;;;;;3.91;88.32;100823.56;5050314;28;20608;-71
2021/03/25 03:59:21;;;;;;;24.03;12.97;;;;;;;3.82;88.50;100818.63;5050812;28;20242;-71
2021/03/25 04:01:58;;;;;;;23.43;14.40;;;;;;;3.75;88.14;100811.78;5050790;28;20163;-71
2021/03/25 04:04:30;;;;;;;18.50;11.87;;;;;;;3.68;87.86;100817.41;5050640;28;20452;-71
2021/03/25 04:07:04;;;;;;;28.43;13.20;;;;;;;3.54;88.46;100816.19;5050473;28;20175;-71
2021/03/25 04:09:39;;;;;;;21.77;13.60;;;;;;;3.39;88.69;100811.44;5050124;28;20171;-71
2021/03/25 04:12:20;;;;;;;23.13;12.77;;;;;;;3.16;90.44;100814.44;5050894;28;20178;-71
2021/03/25 04:14:49;;;;;;;30.27;13.20;;;;;;;3.24;91.17;100814.81;5050422;28;20171;-71
2021/03/25 04:17:44;;;;;;;22.07;11.80;;;;;;;3.44;91.35;100814.19;5050348;28;20198;-72
2021/03/25 04:20:16;;;;;;;34.93;14.33;;;;;;;3.63;90.68;100813.84;5045943;28;20218;-72
2021/03/25 04:22:46;;;;;;;23.23;13.07;;;;;;;3.55;89.26;100821.34;5054808;28;20175;-72
2021/03/25 04:25:24;;;;;;;18.40;11.77;;;;;;;3.59;88.84;100814.34;5054994;28;20250;-72
2021/03/25 04:28:09;;;;;;;18.00;14.50;;;;;;;3.70;88.37;100801.75;5054335;28;20210;-72
2021/03/25 04:30:42;;;;;;;20.87;14.90;;;;;;;3.76;88.17;100816.09;5054584;28;20175;-71
2021/03/25 04:33:08;;;;;;;27.63;13.80;;;;;;;3.80;88.24;100817.25;5054503;28;20225;-71
2021/03/25 04:35:33;;;;;;;21.63;13.00;;;;;;;3.89;88.48;100821.09;5054457;28;20175;-71
2021/03/25 04:38:00;;;;;;;26.80;13.93;;;;;;;3.94;88.00;100826.56;5053790;28;20721;-71
2021/03/25 04:40:33;;;;;;;26.53;14.77;;;;;;;3.69;86.98;100823.63;5054242;28;20198;-72
2021/03/25 04:42:59;;;;;;;27.83;11.97;;;;;;;3.40;88.21;100821.19;5054650;28;20743;-71
2021/03/25 04:45:47;;;;;;;14.37;11.30;;;;;;;3.26;89.24;100822.66;5054351;28;20182;-71
2021/03/25 04:48:17;;;;;;;29.07;14.33;;;;;;;3.15;90.51;100827.09;5053677;28;20183;-71
2021/03/25 04:50:55;;;;;;;23.03;13.00;;;;;;;3.02;91.07;100829.38;5054078;28;20175;-71
2021/03/25 04:53:34;;;;;;;22.17;12.53;;;;;;;2.88;91.48;100820.84;5054111;28;20233;-71
2021/03/25 04:56:02;;;;;;;39.23;14.70;;;;;;;2.86;92.05;100823.78;5053950;28;20432;-71
2021/03/25 04:58:39;;;;;;;18.83;11.87;;;;;;;2.93;92.36;100823.63;5053821;28;20256;-71
2021/03/25 05:01:14;;;;;;;25.10;14.00;;;;;;;2.98;92.61;100821.78;5054220;28;20417;-71
2021/03/25 05:03:41;;;;;;;24.60;13.73;;;;;;;2.89;92.37;100825.16;5054691;28;20171;-71
2021/03/25 05:06:15;;;;;;;27.93;16.10;;;;;;;2.79;92.44;100822.38;5035743;28;20171;-71
2021/03/25 05:08:41;;;;;;;49.30;16.37;;;;;;;2.71;92.69;100820.91;5035136;28;20171;-72
2021/03/25 05:11:12;;;;;;;28.30;14.20;;;;;;;2.71;93.03;100826.31;5035935;28;20214;-71
2021/03/25 05:13:43;;;;;;;30.40;15.17;;;;;;;2.72;93.29;100822.53;5036057;28;20182;-71
2021/03/25 05:16:30;;;;;;;27.77;13.50;;;;;;;2.73;93.87;100824.16;5053249;28;20495;-71
2021/03/25 05:19:14;;;;;;;23.93;12.17;;;;;;;2.63;93.63;100832.13;5053901;28;20175;-71
2021/03/25 05:22:05;;;;;;;17.07;11.20;;;;;;;2.53;93.98;100829.28;5035532;28;20544;-71
2021/03/25 05:24:45;;;;;;;20.13;11.53;;;;;;;2.52;94.10;100833.06;5053654;28;20489;-71
2021/03/25 05:27:20;;;;;;;24.63;11.27;;;;;;;2.59;94.46;100830.97;5053060;28;20444;-72
2021/03/25 05:29:48;;;;;;;17.07;9.77;;;;;;;2.51;94.42;100836.81;5053492;28;20186;-71
2021/03/25 05:32:22;;;;;;;31.80;11.60;;;;;;;2.52;94.42;100838.44;5053332;28;20421;-71
2021/03/25 05:34:51;;;;;;;17.90;10.87;;;;;;;2.53;94.78;100840.09;5053435;28;20889;-72
2021/03/25 05:37:16;;;;;;;20.60;11.13;;;;;;;2.56;95.49;100839.56;5068964;28;20518;-72
2021/03/25 05:39:43;;;;;;;27.10;10.90;;;;;;;2.62;95.31;100844.00;5073325;28;20182;-72
2021/03/25 05:42:21;;;;;;;31.97;13.17;;;;;;;2.71;95.41;100842.50;5073313;28;20186;-71
2021/03/25 05:45:05;;;;;;;24.73;11.13;;;;;;;2.78;95.34;100845.03;5073278;28;20163;-71
2021/03/25 05:47:39;;;;;;;19.87;14.37;;;;;;;3.04;95.15;100841.56;5072859;28;20254;-72
2021/03/25 05:50:20;;;;;;;33.10;14.53;;;;;;;2.90;94.27;100840.31;5073129;28;20296;-72
2021/03/25 05:52:53;;;;;;;15.23;13.30;;;;;;;2.72;94.78;100837.91;5073044;28;20174;-72
2021/03/25 05:55:45;;;;;;;15.57;10.77;;;;;;;2.85;94.27;100845.63;5073025;28;20175;-72
2021/03/25 05:58:49;;;;;;;29.97;11.60;;;;;;;2.69;94.04;100852.72;5054663;28;20340;-72
2021/03/25 06:01:43;;;;;;;23.93;13.73;;;;;;;2.53;94.75;100857.09;5010699;28;20180;-72
2021/03/25 06:04:20;;;;;;;24.13;13.80;;;;;;;2.86;94.62;100856.19;5059187;28;20572;-72
2021/03/25 06:07:07;;;;;;;20.47;13.40;;;;;;;3.06;94.11;100860.22;5072523;28;20211;-72
2021/03/25 06:10:05;;;;;;;38.10;13.23;;;;;;;3.30;93.70;100866.97;5071962;28;20181;-72
2021/03/25 06:12:56;;;;;;;35.97;12.47;;;;;;;3.58;92.81;100864.03;5072799;28;20186;-72
2021/03/25 06:15:57;;;;;;;17.47;12.47;;;;;;;3.73;91.91;100863.38;5072814;28;20170;-72
2021/03/25 06:18:31;;;;;;;23.00;12.80;;;;;;;3.77;90.59;100871.81;5016938;28;20487;-72
2021/03/25 06:21:07;;;;;;;18.73;12.67;;;;;;;3.70;90.07;100868.47;5072675;28;20646;-71
2021/03/25 06:23:40;;;;;;;25.90;12.47;;;;;;;3.64;90.12;100869.50;5072749;28;20185;-71
2021/03/25 06:26:24;;;;;;;21.37;14.23;;;;;;;3.59;90.76;100873.78;5072304;28;20169;-72
2021/03/25 06:28:55;;;;;;;22.13;14.60;;;;;;;3.66;91.34;100875.47;5072712;28;20734;-72
2021/03/25 06:31:23;;;;;;;25.33;12.53;;;;;;;3.76;91.76;100872.84;5072750;28;20216;-71
2021/03/25 06:34:00;;;;;;;19.43;10.60;;;;;;;3.87;91.46;100872.69;5072547;28;20205;-72
2021/03/25 06:36:41;;;;;;;20.80;12.90;;;;;;;4.04;91.60;100877.16;5071938;28;20508;-72
2021/03/25 06:39:18;;;;;;;21.20;14.30;;;;;;;4.09;92.21;100877.22;5072228;28;20213;-72
2021/03/25 06:41:52;;;;;;;22.10;15.13;;;;;;;4.25;92.49;100876.28;5072206;28;20261;-71
2021/03/25 06:44:26;;;;;;;22.93;12.30;;;;;;;4.44;92.24;100879.38;5071442;28;20174;-72
2021/03/25 06:47:07;;;;;;;18.20;11.87;;;;;;;4.52;92.21;100873.50;5073004;28;20245;-72
2021/03/25 06:49:46;;;;;;;16.27;13.07;;;;;;;4.63;91.16;100886.03;5074980;28;20206;-72
2021/03/25 06:52:29;;;;;;;29.23;15.83;;;;;;;4.72;90.92;100881.72;5073439;28;20168;-72
2021/03/25 06:55:01;;;;;;;25.13;12.37;;;;;;;4.82;90.55;100881.00;5072017;28;20273;-72
2021/03/25 06:57:59;;;;;;;18.63;13.27;;;;;;;4.86;90.24;100879.38;5071530;28;20681;-71
2021/03/25 07:00:27;;;;;;;21.77;13.30;;;;;;;4.68;90.29;100888.75;5071004;28;20201;-72
2021/03/25 07:02:55;;;;;;;20.40;13.97;;;;;;;4.60;90.56;100888.41;5071462;28;20181;-72
2021/03/25 07:05:29;;;;;;;15.30;11.47;;;;;;;4.57;90.25;100889.75;5071462;28;20175;-72
2021/03/25 07:08:02;;;;;;;17.70;13.07;;;;;;;4.64;90.14;100890.34;5071117;28;20265;-72
2021/03/25 07:10:27;;;;;;;18.97;12.17;;;;;;;4.66;89.72;100888.19;5070682;28;20593;-72
2021/03/25 07:13:04;;;;;;;22.00;13.30;;;;;;;4.97;89.59;100899.19;5071434;28;20266;-71
2021/03/25 07:15:33;;;;;;;15.43;10.60;;;;;;;5.13;88.99;100902.81;5071532;28;20167;-72
2021/03/25 07:18:03;;;;;;;15.87;9.87;;;;;;;5.19;89.03;100899.84;5070870;28;20208;-72
2021/03/25 07:20:35;;;;;;;16.83;11.07;;;;;;;5.28;89.05;100903.69;5071171;28;20657;-72
2021/03/25 07:23:05;;;;;;;17.87;11.77;;;;;;;5.40;89.69;100897.22;5071160;28;20201;-72
2021/03/25 07:25:33;;;;;;;20.57;12.03;;;;;;;5.48;89.11;100899.41;5071410;28;20174;-72
2021/03/25 07:28:01;;;;;;;14.60;11.47;;;;;;;5.46;89.57;100907.00;5070690;28;20635;-72
2021/03/25 07:30:37;;;;;;;19.07;11.67;;;;;;;5.59;90.07;100907.31;5071035;28;20576;-72
2021/03/25 07:33:19;;;;;;;23.03;13.80;;;;;;;5.69;89.46;100914.66;5070806;28;20162;-72
2021/03/25 07:36:07;;;;;;;14.73;13.07;;;;;;;5.70;88.80;100910.06;5071061;28;20919;-71
2021/03/25 07:38:37;;;;;;;29.00;14.93;;;;;;;5.76;89.10;100925.25;5070960;28;20193;-72
2021/03/25 07:41:25;;;;;;;21.97;14.50;;;;;;;5.73;89.21;100918.47;5071045;28;20598;-72
2021/03/25 07:44:06;;;;;;;20.70;15.00;;;;;;;5.80;89.75;100918.22;5070878;28;20635;-72
2021/03/25 07:46:42;;;;;;;25.03;15.53;;;;;;;5.93;89.15;100920.41;5070561;28;20646;-72
2021/03/25 07:49:11;;;;;;;21.73;13.50;;;;;;;5.86;88.40;100915.22;5070885;28;20323;-72
2021/03/25 07:51:53;;;;;;;25.00;14.60;;;;;;;5.87;88.25;100916.88;5070718;28;20219;-72
2021/03/25 07:54:31;;;;;;;21.83;13.67;;;;;;;6.00;88.04;100912.03;5070305;28;20677;-72
2021/03/25 07:56:58;;;;;;;17.70;13.17;;;;;;;6.04;87.61;100915.84;5069888;28;20198;-72
2021/03/25 07:59:33;;;;;;;23.97;13.60;;;;;;;6.19;87.41;100918.56;5070596;28;20236;-72
2021/03/25 08:01:59;;;;;;;16.37;12.67;;;;;;;6.43;87.18;100908.00;5052555;28;20545;-73
2021/03/25 08:04:26;;;;;;;28.00;16.33;;;;;;;6.59;86.12;100912.31;5070582;28;20177;-72
2021/03/25 08:07:03;;;;;;;34.83;16.83;;;;;;;6.88;85.61;100917.16;5070433;28;20198;-76
2021/03/25 08:09:29;;;;;;;21.20;12.23;;;;;;;6.98;84.74;100912.53;5052914;28;20186;-72
2021/03/25 08:11:57;;;;;;;16.57;13.87;;;;;;;6.85;84.60;100913.91;5050871;28;20265;-77
2021/03/25 08:14:32;;;;;;;23.80;14.50;;;;;;;7.07;84.91;100915.47;5050456;28;20542;-73
2021/03/25 08:17:02;;;;;;;19.37;13.93;;;;;;;7.06;83.86;100917.38;5049991;28;20689;-73
2021/03/25 08:19:36;;;;;;;21.30;14.57;;;;;;;7.17;83.68;100923.59;5050456;28;20262;-73
2021/03/25 08:22:13;;;;;;;16.37;13.13;;;;;;;7.17;83.45;100918.16;5032330;28;20180;-73
2021/03/25 08:24:54;;;;;;;19.33;13.67;;;;;;;7.32;83.90;100918.09;5032411;28;20213;-72
2021/03/25 08:27:31;;;;;;;17.53;13.93;;;;;;;7.35;83.34;100916.72;5050103;28;20242;-73
2021/03/25 08:30:03;;;;;;;22.63;15.07;;;;;;;7.43;82.72;100916.97;5050277;28;20639;-73
2021/03/25 08:32:41;;;;;;;15.77;13.10;;;;;;;7.49;82.91;100912.31;5050318;28;20708;-73
2021/03/25 08:35:17;;;;;;;22.50;14.77;;;;;;;7.69;83.03;100906.78;5050228;28;20170;-73
2021/03/25 08:38:08;;;;;;;17.63;13.67;;;;;;;7.88;82.43;100904.22;5032056;28;20344;-76
2021/03/25 08:40:51;;;;;;;19.70;15.13;;;;;;;7.91;80.92;100911.00;5050084;28;20191;-73
2021/03/25 08:43:32;;;;;;;18.57;13.80;;;;;;;7.98;81.28;100914.25;5050071;28;20181;-73
2021/03/25 08:46:06;;;;;;;17.10;13.40;;;;;;;8.11;80.80;100910.06;5050052;28;20242;-72
2021/03/25 08:48:41;;;;;;;16.87;13.80;;;;;;;8.27;80.58;100914.31;5050140;28;20184;-73
2021/03/25 08:51:16;;;;;;;21.80;15.97;;;;;;;8.21;80.07;100916.22;5050094;28;20601;-73
2021/03/25 08:54:13;;;;;;;17.70;15.17;;;;;;;8.13;79.87;100908.69;5050071;28;20260;-72
2021/03/25 08:56:38;;;;;;;23.47;13.43;;;;;;;8.18;79.28;100913.28;5049080;28;20214;-72
2021/03/25 08:59:16;;;;;;;16.40;13.00;;;;;;;8.37;80.35;100918.84;5050076;28;20183;-73
2021/03/25 09:01:59;;;;;;;18.30;14.23;;;;;;;8.36;80.14;100920.78;5049929;28;20218;-71
2021/03/25 09:04:29;;;;;;;17.80;14.00;;;;;;;8.58;79.57;100920.31;5032204;28;20541;-72
2021/03/25 09:06:54;;;;;;;18.83;14.90;;;;;;;8.64;79.68;100921.88;5050965;28;20480;-72
2021/03/25 09:09:25;;;;;;;15.80;13.23;;;;;;;8.49;79.77;100916.59;5052900;28;20171;-71
2021/03/25 09:11:50;;;;;;;24.90;14.03;;;;;;;8.48;79.91;100918.50;5053517;28;20178;-72
2021/03/25 09:14:25;;;;;;;16.43;12.50;;;;;;;8.71;79.95;100922.38;5053558;28;20175;-72
2021/03/25 09:16:52;;;;;;;17.00;14.33;;;;;;;8.80;78.55;100914.38;5053165;28;20194;-72
2021/03/25 09:19:28;;;;;;;15.80;12.87;;;;;;;8.95;78.83;100917.75;5053456;28;20816;-72
2021/03/25 09:21:57;;;;;;;21.37;13.17;;;;;;;9.24;78.64;100920.44;5035561;28;20514;-72
2021/03/25 09:24:23;;;;;;;15.47;12.87;;;;;;;9.42;78.46;100924.34;5035510;28;20185;-72
2021/03/25 09:26:55;;;;;;;14.23;11.87;;;;;;;9.50;77.81;100920.13;5056326;28;20270;-71
2021/03/25 09:29:29;;;;;;;17.27;14.43;;;;;;;9.51;76.72;100922.56;5055336;28;20209;-72
2021/03/25 09:31:55;;;;;;;15.57;13.50;;;;;;;9.63;76.18;100918.59;5073284;28;20197;-72
2021/03/25 09:34:23;;;;;;;22.83;13.87;;;;;;;9.57;75.56;100923.34;5073245;28;20210;-72
2021/03/25 09:36:52;;;;;;;17.53;13.73;;;;;;;9.66;75.73;100913.38;5072582;28;20293;-72
2021/03/25 09:39:26;;;;;;;14.37;12.87;;;;;;;9.64;74.86;100914.78;5072997;28;20177;-72
2021/03/25 09:41:53;;;;;;;18.23;13.67;;;;;;;9.80;75.36;100921.63;5054976;28;20178;-71
2021/03/25 09:44:38;;;;;;;19.23;14.27;;;;;;;9.96;74.34;100917.59;5072989;28;20383;-72
2021/03/25 09:47:27;;;;;;;17.20;14.00;;;;;;;10.24;73.69;100918.56;5072734;28;20178;-72
2021/03/25 09:50:02;;;;;;;15.10;13.60;;;;;;;10.14;72.88;100908.59;5073097;28;20174;-72
2021/03/25 09:52:45;;;;;;;18.60;14.07;;;;;;;10.27;73.80;100911.69;5072775;28;20170;-72
2021/03/25 09:55:14;;;;;;;18.23;12.90;;;;;;;10.24;72.73;100904.91;5072911;28;20700;-72
2021/03/25 09:57:42;;;;;;;21.20;14.03;;;;;;;10.28;72.41;100905.94;5072444;28;20202;-74
2021/03/25 10:00:23;;;;;;;16.73;13.87;;;;;;;10.46;71.38;100906.19;5072761;28;20308;-73
2021/03/25 10:02:51;;;;;;;20.17;15.13;;;;;;;10.33;72.33;100894.13;5054583;28;20174;-72
2021/03/25 10:05:30;;;;;;;16.57;14.13;;;;;;;10.35;72.86;100900.91;5073099;28;20189;-72
2021/03/25 10:07:56;;;;;;;13.83;12.33;;;;;;;10.39;71.78;100896.44;5054215;28;20177;-72
2021/03/25 10:10:35;;;;;;;15.73;13.63;;;;;;;10.75;70.96;100892.31;5053672;28;20178;-72
2021/03/25 10:13:00;;;;;;;16.50;13.60;;;;;;;10.80;69.45;100893.00;5072615;28;20174;-72
2021/03/25 10:15:32;;;;;;;18.43;13.73;;;;;;;11.02;70.52;100897.81;5072341;28;20179;-72
2021/03/25 10:18:00;;;;;;;19.93;15.03;;;;;;;11.06;68.82;100890.59;5071093;28;20214;-72
2021/03/25 10:20:51;;;;;;;20.20;14.73;;;;;;;10.76;69.39;100891.19;5054338;28;20181;-72
2021/03/25 10:23:32;;;;;;;17.00;13.30;;;;;;;11.10;69.49;100890.81;5063927;28;20236;-72
2021/03/25 10:26:10;;;;;;;17.37;15.40;;;;;;;11.26;67.82;100883.91;5072434;28;20170;-72
2021/03/25 10:28:39;;;;;;;20.37;15.50;;;;;;;11.02;68.66;100884.94;5054211;28;20280;-72
2021/03/25 10:31:09;;;;;;;16.10;13.37;;;;;;;11.21;68.34;100887.56;5052299;28;20182;-72
2021/03/25 10:33:36;;;;;;;20.30;14.13;;;;;;;11.50;67.77;100884.50;5052324;28;20179;-72
2021/03/25 10:36:08;;;;;;;19.30;13.33;;;;;;;11.67;66.69;100886.59;5052311;28;20262;-72
2021/03/25 10:38:45;;;;;;;17.13;12.40;;;;;;;11.72;67.12;100888.41;5051967;28;20207;-72
2021/03/25 10:41:17;;;;;;;18.70;12.97;;;;;;;11.66;66.47;100882.22;5052009;28;20197;-72
2021/03/25 10:43:43;;;;;;;17.87;14.10;;;;;;;11.67;66.71;100877.56;5052063;28;20178;-72
2021/03/25 10:46:22;;;;;;;15.80;12.70;;;;;;;11.68;66.04;100874.50;5051749;28;20175;-72
2021/03/25 10:48:47;;;;;;;15.50;13.13;;;;;;;11.60;65.90;100872.53;5051894;28;20187;-72
2021/03/25 10:51:12;;;;;;;18.57;13.87;;;;;;;11.48;66.36;100873.06;5051954;28;20185;-72
2021/03/25 10:53:45;;;;;;;17.50;14.73;;;;;;;11.25;66.65;100872.16;5051753;28;20225;-72
2021/03/25 10:56:25;;;;;;;21.87;15.47;;;;;;;11.31;66.87;100873.69;5051516;28;20178;-73
2021/03/25 10:59:01;;;;;;;19.63;13.83;;;;;;;11.42;66.25;100860.56;5052117;28;20167;-72
2021/03/25 11:01:32;;;;;;;18.63;14.43;;;;;;;11.61;66.62;100872.22;5051675;28;20271;-72
2021/03/25 11:03:59;;;;;;;17.50;13.90;;;;;;;11.51;65.60;100863.41;5051718;28;20172;-72
2021/03/25 11:06:29;;;;;;;17.70;13.80;;;;;;;11.55;66.33;100859.75;5051195;28;20186;-72
2021/03/25 11:09:14;;;;;;;19.50;15.73;;;;;;;11.47;66.35;100856.94;5032732;28;20388;-72
2021/03/25 11:11:39;;;;;;;19.93;14.63;;;;;;;11.55;66.01;100867.16;5051426;28;20162;-72
2021/03/25 11:14:05;;;;;;;18.03;14.43;;;;;;;11.76;66.24;100857.38;5051427;28;20179;-72
2021/03/25 11:16:32;;;;;;;18.50;14.47;;;;;;;11.87;65.11;100856.06;5050946;28;20182;-72
2021/03/25 11:19:04;;;;;;;21.40;14.17;;;;;;;12.07;64.96;100864.91;5051301;28;20206;-72
2021/03/25 11:21:39;;;;;;;14.07;12.07;;;;;;;12.35;63.49;100854.63;5051278;28;20229;-72
2021/03/25 11:24:24;;;;;;;16.50;14.60;;;;;;;12.49;63.01;100852.59;5033247;28;20171;-73
2021/03/25 11:27:06;;;;;;;16.97;13.00;;;;;;;12.57;63.25;100859.25;5054452;28;20225;-72
2021/03/25 11:29:36;;;;;;;16.70;13.50;;;;;;;12.54;62.61;100851.66;5071133;28;20186;-72
2021/03/25 11:32:20;;;;;;;16.33;14.67;;;;;;;12.22;63.39;100853.56;5071352;28;20166;-72
2021/03/25 11:34:48;;;;;;;18.03;15.23;;;;;;;11.87;64.51;100847.03;5071168;28;20627;-72
2021/03/25 11:37:25;;;;;;;18.83;14.87;;;;;;;11.65;65.28;100845.03;5070795;28;20199;-72
2021/03/25 11:39:56;;;;;;;20.87;15.40;;;;;;;11.72;64.50;100848.16;5071112;28;20180;-72
2021/03/25 11:42:22;;;;;;;24.50;14.30;;;;;;;11.85;65.26;100841.84;5071161;28;20258;-72
2021/03/25 11:44:49;;;;;;;20.07;13.60;;;;;;;12.02;65.81;100848.59;5071715;28;20257;-72
2021/03/25 11:47:38;;;;;;;16.97;14.10;;;;;;;12.23;64.10;100846.16;5070768;28;20179;-73